Time;durP1;ratioP1;P1;durP2;ratioP2;P2;SDS_P1;SDS_P2;PMS_P1;PMS_P2;Temp;Humidity;BMP_temperature;BMP_pressure;BME280_temperature;BME280_humidity;BME280_pressure;Samples;Min_cycle;Max_cycle;Signal;HPM_P1;HPM_P2
2021/03/02 00:00:15;;;;;;;36.30;16.05;;;;;;;1.39;100.00;102771.78;5035236;28;20025;-81
2021/03/02 00:02:42;;;;;;;35.15;15.85;;;;;;;1.52;100.00;102768.50;5062713;28;20120;-81
2021/03/02 00:05:11;;;;;;;38.30;16.25;;;;;;;1.69;99.88;102769.59;5028023;28;20040;-81
2021/03/02 00:07:39;;;;;;;33.22;16.15;;;;;;;1.68;99.89;102770.47;5064634;28;20040;-82
2021/03/02 00:10:08;;;;;;;32.05;15.77;;;;;;;1.40;99.73;102768.38;5029979;28;20048;-82
2021/03/02 00:12:37;;;;;;;42.05;17.25;;;;;;;1.14;100.00;102765.41;5060275;28;20049;-80
2021/03/02 00:15:06;;;;;;;37.72;17.50;;;;;;;0.92;100.00;102769.41;5047244;28;20064;-80
2021/03/02 00:17:50;;;;;;;38.10;17.50;;;;;;;0.73;100.00;102758.75;5046864;28;20037;-82
2021/03/02 00:20:21;;;;;;;47.78;18.80;;;;;;;0.65;100.00;102759.47;5059597;28;20044;-80
2021/03/02 00:23:09;;;;;;;48.55;19.20;;;;;;;0.62;100.00;102765.47;5059639;28;20044;-81
2021/03/02 00:25:40;;;;;;;48.70;19.77;;;;;;;0.50;100.00;102758.38;5074112;28;21464;-81
2021/03/02 00:28:09;;;;;;;42.33;19.17;;;;;;;0.51;100.00;102767.03;5048731;28;20036;-81
2021/03/02 00:30:38;;;;;;;44.60;19.45;;;;;;;0.49;100.00;102768.69;5039367;28;20053;-80
2021/03/02 00:33:11;;;;;;;53.75;20.35;;;;;;;0.52;100.00;102763.56;5057052;28;20052;-82
2021/03/02 00:35:39;;;;;;;46.08;18.65;;;;;;;0.93;100.00;102761.63;5067710;28;20056;-80
2021/03/02 00:38:06;;;;;;;45.33;19.15;;;;;;;1.12;100.00;102767.97;5065874;28;20120;-81
2021/03/02 00:40:33;;;;;;;42.47;18.50;;;;;;;1.21;100.00;102768.09;5041321;28;20052;-81
2021/03/02 00:43:00;;;;;;;39.83;19.05;;;;;;;1.34;100.00;102769.13;5038937;28;20062;-80
2021/03/02 00:45:27;;;;;;;41.33;19.00;;;;;;;1.34;100.00;102766.53;5031968;28;20117;-81
2021/03/02 00:47:55;;;;;;;43.35;18.45;;;;;;;1.33;100.00;102770.00;5057417;28;20068;-80
2021/03/02 00:50:23;;;;;;;34.67;17.67;;;;;;;1.47;100.00;102772.78;5053681;28;20067;-85
2021/03/02 00:52:51;;;;;;;37.63;17.42;;;;;;;1.49;100.00;102764.16;5033651;28;20403;-84
2021/03/02 00:55:19;;;;;;;37.40;16.60;;;;;;;1.60;99.94;102769.47;5035096;28;20067;-81
2021/03/02 00:57:46;;;;;;;40.17;18.25;;;;;;;1.49;99.21;102761.56;5053222;28;20075;-82
2021/03/02 01:00:13;;;;;;;35.63;16.05;;;;;;;1.17;99.80;102765.44;5057309;28;20064;-82
2021/03/02 01:02:42;;;;;;;38.60;17.33;;;;;;;0.85;100.00;102772.75;5071149;28;20107;-81
2021/03/02 01:05:09;;;;;;;39.78;19.10;;;;;;;0.59;100.00;102765.44;5070554;28;20021;-82
2021/03/02 01:07:36;;;;;;;39.13;16.98;;;;;;;1.10;100.00;102766.22;5036472;28;20061;-80
2021/03/02 01:10:05;;;;;;;37.80;17.25;;;;;;;1.28;100.00;102761.28;5060040;28;20044;-81
2021/03/02 01:12:32;;;;;;;37.80;18.80;;;;;;;1.05;100.00;102760.97;5037722;28;20053;-81
2021/03/02 01:15:00;;;;;;;38.03;18.33;;;;;;;0.79;100.00;102763.16;5024085;28;20060;-82
2021/03/02 01:17:27;;;;;;;39.25;19.05;;;;;;;0.55;100.00;102755.88;5014451;28;20075;-81
2021/03/02 01:19:54;;;;;;;39.95;18.27;;;;;;;0.82;100.00;102751.97;5052864;28;20188;-82
2021/03/02 01:22:21;;;;;;;40.92;18.58;;;;;;;0.84;100.00;102743.34;5029474;28;20048;-83
2021/03/02 01:24:48;;;;;;;34.75;17.08;;;;;;;1.00;100.00;102744.47;5029540;28;20049;-83
2021/03/02 01:27:15;;;;;;;43.08;19.35;;;;;;;0.99;100.00;102746.19;5049564;28;20053;-82
2021/03/02 01:29:43;;;;;;;38.83;17.73;;;;;;;0.75;100.00;102741.47;5055560;28;20061;-85
2021/03/02 01:32:10;;;;;;;39.58;18.05;;;;;;;0.46;100.00;102741.03;5029533;28;20036;-84
2021/03/02 01:34:37;;;;;;;49.85;20.75;;;;;;;0.25;100.00;102749.28;5013284;28;20164;-83
2021/03/02 01:37:04;;;;;;;38.88;17.85;;;;;;;0.12;100.00;102742.16;5030962;28;20049;-80
2021/03/02 01:39:31;;;;;;;44.78;17.63;;;;;;;0.70;100.00;102745.72;5031781;28;20451;-82
2021/03/02 01:41:59;;;;;;;40.10;18.40;;;;;;;0.62;100.00;102741.25;5052115;28;20061;-82
2021/03/02 01:44:27;;;;;;;44.38;19.48;;;;;;;0.33;100.00;102735.63;5059105;28;20078;-81
2021/03/02 01:46:54;;;;;;;49.67;20.38;;;;;;;0.16;100.00;102741.34;5041751;28;20029;-80
2021/03/02 01:49:22;;;;;;;42.50;19.15;;;;;;;0.27;100.00;102741.56;5052779;28;20462;-84
2021/03/02 01:51:50;;;;;;;40.75;18.48;;;;;;;0.80;100.00;102738.09;5033178;28;20053;-81
2021/03/02 01:54:17;;;;;;;40.88;18.92;;;;;;;0.63;100.00;102736.13;5052134;28;20105;-81
2021/03/02 01:56:44;;;;;;;43.70;18.98;;;;;;;0.70;100.00;102737.94;5053779;28;20047;-82
2021/03/02 01:59:13;;;;;;;44.15;18.23;;;;;;;0.60;100.00;102740.38;5062227;28;20116;-81
2021/03/02 02:01:40;;;;;;;43.58;19.60;;;;;;;0.51;100.00;102738.50;5042821;28;20100;-80
2021/03/02 02:04:22;;;;;;;46.17;21.95;;;;;;;0.37;100.00;102733.09;5045334;28;20093;-81
2021/03/02 02:06:55;;;;;;;51.17;19.73;;;;;;;0.15;100.00;102736.16;5043371;28;20029;-79
2021/03/02 02:09:36;;;;;;;49.30;21.15;;;;;;;0.03;100.00;102739.38;5058506;28;20045;-82
2021/03/02 02:12:07;;;;;;;62.83;21.95;;;;;;;0.06;100.00;102739.47;5027063;28;20049;-83
2021/03/02 02:14:42;;;;;;;42.17;18.90;;;;;;;0.46;100.00;102725.47;5026011;28;20055;-82
2021/03/02 02:17:26;;;;;;;47.20;21.42;;;;;;;0.46;100.00;102733.25;5051203;28;20056;-80
2021/03/02 02:19:55;;;;;;;39.75;18.08;;;;;;;0.38;100.00;102733.97;5031124;28;20041;-81
2021/03/02 02:22:30;;;;;;;43.17;19.00;;;;;;;0.19;100.00;102730.19;5020009;28;20057;-81
2021/03/02 02:25:14;;;;;;;44.88;19.27;;;;;;;0.11;100.00;102732.63;5031153;28;20148;-82
2021/03/02 02:27:42;;;;;;;41.35;19.35;;;;;;;0.35;100.00;102729.59;5025660;28;20045;-80
2021/03/02 02:30:09;;;;;;;39.55;18.70;;;;;;;0.57;100.00;102729.97;5046537;28;20051;-81
2021/03/02 02:32:38;;;;;;;40.22;19.15;;;;;;;0.43;100.00;102727.13;5044343;28;20051;-80
2021/03/02 02:35:06;;;;;;;44.13;19.75;;;;;;;0.16;100.00;102736.19;5045632;28;20041;-81
2021/03/02 02:37:33;;;;;;;44.25;21.15;;;;;;;0.16;100.00;102725.81;5048845;28;20053;-80
2021/03/02 02:40:01;;;;;;;40.63;19.98;;;;;;;-0.04;100.00;102725.47;5056223;28;20025;-82
2021/03/02 02:42:29;;;;;;;45.70;20.65;;;;;;;0.36;100.00;102728.78;5034265;28;20066;-81
2021/03/02 02:44:56;;;;;;;41.88;20.67;;;;;;;0.31;100.00;102724.34;5051791;28;20025;-80
2021/03/02 02:47:25;;;;;;;43.15;18.88;;;;;;;0.56;100.00;102725.63;5053856;28;20063;-80
2021/03/02 02:49:53;;;;;;;39.30;17.90;;;;;;;0.36;100.00;102723.59;5051909;28;20045;-80
2021/03/02 02:52:33;;;;;;;48.17;22.25;;;;;;;0.28;100.00;102729.50;5080766;28;20047;-81
2021/03/02 02:55:00;;;;;;;39.92;19.20;;;;;;;0.44;100.00;102732.34;5044980;28;20037;-82
2021/03/02 02:57:29;;;;;;;46.42;19.27;;;;;;;0.29;100.00;102733.81;5034313;28;20060;-81
2021/03/02 02:59:58;;;;;;;41.40;18.88;;;;;;;0.25;100.00;102730.28;5048793;28;20040;-80
2021/03/02 03:02:28;;;;;;;46.28;20.15;;;;;;;0.44;100.00;102728.88;5061164;28;20059;-81
2021/03/02 03:04:58;;;;;;;48.10;19.30;;;;;;;0.17;100.00;102737.03;5040258;28;20053;-81
2021/03/02 03:07:30;;;;;;;54.42;21.42;;;;;;;-0.05;100.00;102731.47;5044342;28;20045;-83
2021/03/02 03:10:17;;;;;;;56.17;21.40;;;;;;;-0.19;100.00;102732.94;5063397;28;20125;-82
2021/03/02 03:12:47;;;;;;;58.05;21.92;;;;;;;-0.24;100.00;102724.22;5043142;28;20447;-82
2021/03/02 03:15:16;;;;;;;54.05;22.35;;;;;;;-0.31;100.00;102728.41;5050865;28;20110;-81
2021/03/02 03:17:47;;;;;;;48.55;20.15;;;;;;;-0.34;100.00;102724.88;5050807;28;20076;-80
2021/03/02 03:20:14;;;;;;;52.33;22.08;;;;;;;-0.37;100.00;102724.81;5055411;28;20057;-81
2021/03/02 03:22:42;;;;;;;56.55;23.58;;;;;;;-0.27;100.00;102726.72;5045924;28;20076;-80
2021/03/02 03:25:10;;;;;;;61.85;22.10;;;;;;;-0.15;100.00;102729.56;5028579;28;20083;-81
2021/03/02 03:27:40;;;;;;;47.85;21.83;;;;;;;-0.30;100.00;102724.09;5041895;28;20053;-80
2021/03/02 03:30:09;;;;;;;59.40;22.95;;;;;;;-0.34;100.00;102723.16;5028375;28;20065;-80
2021/03/02 03:32:38;;;;;;;47.47;19.55;;;;;;;0.34;100.00;102721.81;5048063;28;20108;-82
2021/03/02 03:35:06;;;;;;;46.65;20.77;;;;;;;0.04;100.00;102725.59;5042977;28;20080;-80
2021/03/02 03:37:33;;;;;;;46.38;20.00;;;;;;;-0.17;100.00;102726.09;5056743;28;20037;-82
2021/03/02 03:40:00;;;;;;;51.10;21.25;;;;;;;-0.24;100.00;102726.81;5058710;28;20087;-82
2021/03/02 03:42:28;;;;;;;51.22;20.67;;;;;;;0.20;100.00;102731.94;5059794;28;20049;-81
2021/03/02 03:45:05;;;;;;;40.35;18.60;;;;;;;0.52;100.00;102732.47;5039487;28;20079;-82
2021/03/02 03:47:33;;;;;;;39.65;19.38;;;;;;;0.69;100.00;102727.56;5025639;28;20064;-81
2021/03/02 03:50:01;;;;;;;47.90;18.92;;;;;;;0.67;100.00;102721.47;5029764;28;20033;-80
2021/03/02 03:52:28;;;;;;;46.03;21.13;;;;;;;0.28;100.00;102724.31;5058360;28;20036;-81
2021/03/02 03:55:12;;;;;;;47.83;20.15;;;;;;;0.25;100.00;102725.97;5052660;28;20053;-81
2021/03/02 03:57:40;;;;;;;45.75;20.23;;;;;;;0.15;100.00;102730.97;5034057;28;20053;-84
2021/03/02 04:00:08;;;;;;;49.08;20.13;;;;;;;-0.12;100.00;102733.94;5035929;28;20394;-81
2021/03/02 04:02:35;;;;;;;46.53;19.25;;;;;;;-0.30;100.00;102731.88;5049336;28;20052;-80
2021/03/02 04:05:04;;;;;;;51.08;22.02;;;;;;;-0.16;100.00;102729.53;5066604;28;20071;-81
2021/03/02 04:07:32;;;;;;;53.03;21.73;;;;;;;-0.29;100.00;102731.88;5059625;28;20055;-81
2021/03/02 04:09:59;;;;;;;51.00;20.58;;;;;;;-0.05;100.00;102728.00;5058418;28;20637;-81
2021/03/02 04:12:38;;;;;;;52.17;21.73;;;;;;;-0.28;100.00;102720.69;5048458;28;20095;-83
2021/03/02 04:15:26;;;;;;;43.72;19.60;;;;;;;0.18;100.00;102725.84;5034058;28;20064;-82
2021/03/02 04:17:55;;;;;;;41.58;18.42;;;;;;;0.29;100.00;102718.28;5049084;28;20046;-83
2021/03/02 04:20:22;;;;;;;46.65;19.25;;;;;;;0.37;100.00;102717.56;5053942;28;20061;-81
2021/03/02 04:23:06;;;;;;;45.47;20.33;;;;;;;0.27;100.00;102717.34;5082623;28;20021;-81
2021/03/02 04:25:35;;;;;;;44.95;19.88;;;;;;;0.17;100.00;102722.38;5030315;28;20049;-82
2021/03/02 04:28:04;;;;;;;46.50;19.55;;;;;;;0.02;100.00;102727.28;5030347;28;20057;-84
2021/03/02 04:30:32;;;;;;;43.95;19.58;;;;;;;0.31;100.00;102722.63;5050438;28;20064;-83
2021/03/02 04:33:00;;;;;;;42.83;19.58;;;;;;;0.34;100.00;102727.00;5019399;28;20084;-81
2021/03/02 04:35:27;;;;;;;48.13;19.08;;;;;;;0.12;100.00;102721.44;5053210;28;20029;-80
2021/03/02 04:37:54;;;;;;;41.10;19.42;;;;;;;-0.16;100.00;102730.41;5026299;28;20048;-82
2021/03/02 04:40:21;;;;;;;45.55;20.15;;;;;;;-0.18;100.00;102734.72;5029161;28;20113;-81
2021/03/02 04:42:48;;;;;;;55.63;19.60;;;;;;;-0.05;100.00;102728.88;5056345;28;20049;-82
2021/03/02 04:45:15;;;;;;;51.03;20.20;;;;;;;-0.03;100.00;102721.16;5052450;28;20053;-81
2021/03/02 04:47:44;;;;;;;49.10;19.55;;;;;;;-0.16;100.00;102724.38;5034749;28;20044;-81
2021/03/02 04:50:13;;;;;;;50.03;20.65;;;;;;;0.07;100.00;102724.78;5042422;28;20099;-82
2021/03/02 04:52:41;;;;;;;46.90;19.75;;;;;;;0.02;100.00;102722.13;5068629;28;20025;-80
2021/03/02 04:55:08;;;;;;;50.95;20.40;;;;;;;-0.07;100.00;102717.63;5053193;28;20029;-78
2021/03/02 04:57:35;;;;;;;46.40;20.70;;;;;;;-0.10;100.00;102720.16;5072827;28;20021;-80
2021/03/02 05:00:07;;;;;;;49.10;20.38;;;;;;;-0.09;100.00;102716.75;5062150;28;20079;-82
2021/03/02 05:02:34;;;;;;;48.88;19.83;;;;;;;-0.25;100.00;102722.47;5050804;28;20101;-79
2021/03/02 05:05:02;;;;;;;47.22;19.70;;;;;;;-0.45;100.00;102724.69;5048493;28;20037;-82
2021/03/02 05:07:29;;;;;;;51.45;20.45;;;;;;;-0.54;100.00;102716.69;5055252;28;20036;-80
2021/03/02 05:09:56;;;;;;;48.78;20.63;;;;;;;-0.08;100.00;102717.63;5066118;28;20038;-81
2021/03/02 05:12:23;;;;;;;48.45;19.90;;;;;;;-0.20;100.00;102722.56;5031744;28;20045;-82
2021/03/02 05:14:50;;;;;;;47.92;18.88;;;;;;;-0.07;100.00;102709.00;5070261;28;20045;-81
2021/03/02 05:17:17;;;;;;;47.70;20.42;;;;;;;0.01;100.00;102716.91;5035867;28;20114;-81
2021/03/02 05:19:44;;;;;;;48.85;20.27;;;;;;;0.08;100.00;102722.22;5046775;28;20053;-82
2021/03/02 05:22:11;;;;;;;44.38;20.65;;;;;;;-0.05;100.00;102718.53;5031895;28;20076;-82
2021/03/02 05:24:38;;;;;;;44.42;20.55;;;;;;;0.11;100.00;102730.06;5031207;28;20097;-81
2021/03/02 05:27:05;;;;;;;45.45;19.65;;;;;;;0.30;100.00;102731.25;5048752;28;20064;-80
2021/03/02 05:29:32;;;;;;;41.95;18.95;;;;;;;-0.02;100.00;102728.94;5064585;28;20037;-81
2021/03/02 05:31:59;;;;;;;47.58;20.70;;;;;;;-0.31;100.00;102727.53;5065055;28;20069;-80
2021/03/02 05:34:26;;;;;;;49.60;21.42;;;;;;;-0.45;100.00;102727.28;5068452;28;20029;-80
2021/03/02 05:36:53;;;;;;;48.78;20.85;;;;;;;-0.16;100.00;102726.97;5055052;28;20064;-81
2021/03/02 05:39:45;;;;;;;46.53;19.42;;;;;;;0.26;100.00;102719.06;5050637;28;20052;-80
2021/03/02 05:42:12;;;;;;;44.17;19.25;;;;;;;0.28;100.00;102721.72;5036682;28;20037;-83
2021/03/02 05:44:39;;;;;;;48.53;19.33;;;;;;;0.14;100.00;102730.13;5022052;28;20053;-80
2021/03/02 05:47:08;;;;;;;37.70;17.45;;;;;;;0.39;100.00;102731.41;5040224;28;20076;-80
2021/03/02 05:49:35;;;;;;;40.20;17.98;;;;;;;0.38;100.00;102726.19;5029600;28;20054;-82
2021/03/02 05:52:03;;;;;;;45.22;19.13;;;;;;;0.20;100.00;102726.75;5058977;28;20055;-82
2021/03/02 05:54:29;;;;;;;41.78;18.70;;;;;;;-0.03;100.00;102728.94;5023492;28;20037;-82
2021/03/02 05:56:56;;;;;;;42.38;18.92;;;;;;;-0.18;100.00;102728.63;5034137;28;20073;-82
2021/03/02 05:59:23;;;;;;;43.30;18.83;;;;;;;-0.33;100.00;102742.16;5011283;28;20051;-82
2021/03/02 06:01:51;;;;;;;48.25;19.45;;;;;;;-0.42;100.00;102736.78;5047650;28;20057;-83
2021/03/02 06:04:18;;;;;;;49.85;21.00;;;;;;;-0.47;100.00;102736.69;5016991;28;20036;-81
2021/03/02 06:06:45;;;;;;;53.85;20.55;;;;;;;-0.42;100.00;102736.78;5033930;28;20055;-82
2021/03/02 06:09:13;;;;;;;52.15;21.25;;;;;;;-0.29;100.00;102736.19;5052043;28;20053;-82
2021/03/02 06:11:40;;;;;;;48.65;21.08;;;;;;;-0.02;100.00;102744.47;5047047;28;20683;-81
2021/03/02 06:14:21;;;;;;;54.60;21.13;;;;;;;0.09;100.00;102736.94;5058326;28;20108;-82
2021/03/02 06:16:54;;;;;;;42.70;17.70;;;;;;;0.42;100.00;102743.53;5042983;28;20044;-83
2021/03/02 06:19:38;;;;;;;43.10;20.13;;;;;;;0.49;100.00;102745.38;5025946;28;20047;-83
2021/03/02 06:22:07;;;;;;;48.15;19.77;;;;;;;0.69;99.35;102743.13;5040621;28;20060;-84
2021/03/02 06:24:39;;;;;;;40.72;17.98;;;;;;;0.67;98.27;102744.81;5030249;28;20069;-82
2021/03/02 06:27:12;;;;;;;35.17;17.70;;;;;;;0.50;99.37;102745.41;5033261;28;20048;-83
2021/03/02 06:29:40;;;;;;;38.42;16.13;;;;;;;0.55;99.38;102742.91;5012393;28;20049;-80
2021/03/02 06:32:08;;;;;;;40.35;16.55;;;;;;;0.59;99.39;102747.28;5051165;28;20073;-82
2021/03/02 06:34:35;;;;;;;38.00;17.13;;;;;;;0.83;98.84;102744.19;5020947;28;20108;-79
2021/03/02 06:37:05;;;;;;;35.88;16.27;;;;;;;0.80;98.52;102748.47;5062741;28;20053;-82
2021/03/02 06:39:39;;;;;;;37.15;15.75;;;;;;;0.98;97.32;102748.75;5044118;28;20044;-81
2021/03/02 06:42:23;;;;;;;35.88;16.70;;;;;;;1.02;96.59;102751.41;5043024;28;20075;-79
2021/03/02 06:45:13;;;;;;;33.47;16.63;;;;;;;1.18;96.70;102738.66;5054820;28;20033;-80
2021/03/02 06:47:45;;;;;;;30.30;15.48;;;;;;;1.59;95.22;102740.91;5073696;28;20125;-79
2021/03/02 06:50:22;;;;;;;34.15;15.00;;;;;;;2.47;91.89;102751.34;5056036;28;20108;-80
2021/03/02 07:00:02;;;;;;;28.00;13.10;;;;;;;4.47;80.58;102749.66;5076596;28;20099;-83
2021/03/02 07:02:46;;;;;;;21.83;11.52;;;;;;;4.73;79.88;102740.97;5049319;28;20144;-81
2021/03/02 07:05:16;;;;;;;27.73;12.77;;;;;;;5.03;77.43;102733.09;5059009;28;20063;-80
2021/03/02 07:07:44;;;;;;;26.25;12.32;;;;;;;6.37;73.39;102738.56;5052186;28;20054;-82
2021/03/02 07:10:15;;;;;;;28.55;12.48;;;;;;;6.74;69.90;102735.63;5041464;28;20045;-80
2021/03/02 07:12:45;;;;;;;20.23;11.10;;;;;;;6.70;69.86;102742.63;5056255;28;20025;-79
2021/03/02 07:15:14;;;;;;;18.13;10.73;;;;;;;6.71;69.23;102743.50;5062915;28;20109;-82
2021/03/02 07:17:44;;;;;;;24.58;11.38;;;;;;;6.65;69.13;102748.81;5042818;28;20041;-83
2021/03/02 07:20:13;;;;;;;28.25;12.88;;;;;;;6.67;68.58;102747.06;5034887;28;20053;-84
2021/03/02 07:22:40;;;;;;;23.35;12.65;;;;;;;6.65;68.46;102749.66;5033097;28;20061;-82
2021/03/02 07:25:10;;;;;;;26.60;12.55;;;;;;;7.16;66.33;102738.69;5034245;28;20064;-80
2021/03/02 07:27:42;;;;;;;26.30;13.30;;;;;;;8.67;61.05;102739.25;5055922;28;20111;-81
2021/03/02 07:30:10;;;;;;;27.75;11.75;;;;;;;9.07;59.86;102743.78;5038115;28;20029;-80
2021/03/02 07:32:41;;;;;;;22.50;12.05;;;;;;;9.00;59.06;102740.38;5054308;28;20053;-81
2021/03/02 07:35:16;;;;;;;25.02;13.05;;;;;;;9.09;58.82;102744.59;5044323;28;20059;-80
2021/03/02 07:37:43;;;;;;;24.27;12.55;;;;;;;10.66;54.45;102740.28;5059692;28;20053;-82
2021/03/02 07:40:15;;;;;;;20.40;12.13;;;;;;;9.72;55.71;102740.72;5043851;28;20037;-80
2021/03/02 07:42:42;;;;;;;24.90;12.52;;;;;;;11.13;51.64;102746.94;5058278;28;20075;-79
2021/03/02 07:45:10;;;;;;;28.23;12.82;;;;;;;11.39;51.22;102743.59;5060816;28;20042;-82
2021/03/02 07:47:57;;;;;;;23.08;12.40;;;;;;;11.79;49.39;102733.63;5054406;28;20097;-81
2021/03/02 07:50:30;;;;;;;21.05;12.27;;;;;;;11.98;49.33;102742.75;5046321;28;20050;-83
2021/03/02 07:53:15;;;;;;;27.92;14.57;;;;;;;11.43;50.13;102739.06;5057955;28;20083;-80
2021/03/02 07:55:43;;;;;;;24.55;14.13;;;;;;;11.40;50.36;102752.34;5074942;28;20973;-80
2021/03/02 07:58:18;;;;;;;29.00;14.48;;;;;;;12.36;48.37;102751.22;5038038;28;20051;-81
2021/03/02 08:00:47;;;;;;;25.08;13.68;;;;;;;12.91;47.61;102752.00;5061595;28;20040;-82
2021/03/02 08:03:27;;;;;;;22.00;14.15;;;;;;;13.26;45.98;102747.28;5066670;28;20049;-82
2021/03/02 08:06:02;;;;;;;26.48;14.68;;;;;;;13.09;46.23;102746.06;5076990;28;20051;-84
2021/03/02 08:08:29;;;;;;;24.08;14.90;;;;;;;12.04;48.82;102746.97;5059683;28;20086;-83
2021/03/02 08:10:58;;;;;;;29.85;15.27;;;;;;;12.04;48.67;102747.81;5080478;28;20121;-82
2021/03/02 08:13:43;;;;;;;26.30;14.82;;;;;;;13.14;46.50;102748.53;5073358;28;20045;-85
2021/03/02 08:16:17;;;;;;;30.35;15.57;;;;;;;13.43;45.33;102744.88;5054190;28;20467;-82
2021/03/02 08:18:46;;;;;;;;;;;;;;;12.73;48.33;102752.63;5044830;28;20446;-86
2021/03/02 08:21:36;;;;;;;26.58;14.95;;;;;;;13.31;46.04;102756.75;5040416;28;20540;-84
2021/03/02 08:24:07;;;;;;;33.72;16.38;;;;;;;13.73;44.75;102757.88;5065624;28;20100;-84
2021/03/02 08:26:35;;;;;;;30.17;16.35;;;;;;;10.97;49.55;102764.06;5054649;28;20037;-85
2021/03/02 08:29:29;;;;;;;33.45;17.40;;;;;;;12.41;48.30;102754.56;5044995;28;20049;-84
2021/03/02 08:31:56;;;;;;;30.42;16.23;;;;;;;13.14;46.59;102751.19;5074878;28;20039;-80
2021/03/02 08:34:24;;;;;;;30.55;16.58;;;;;;;13.11;46.77;102749.53;5041394;28;20045;-82
2021/03/02 08:36:52;;;;;;;28.77;17.50;;;;;;;13.62;46.78;102747.69;5064416;28;20048;-81
2021/03/02 08:39:23;;;;;;;27.52;17.15;;;;;;;15.25;42.23;102749.81;5063129;28;20024;-83
2021/03/02 08:41:50;;;;;;;30.05;19.20;;;;;;;16.11;39.76;102741.41;5067743;28;20072;-82
2021/03/02 08:44:25;;;;;;;32.42;18.25;;;;;;;15.39;40.97;102748.25;5069249;28;20040;-83
2021/03/02 08:47:12;;;;;;;38.63;18.80;;;;;;;15.40;40.83;102744.72;5046168;28;20052;-84
2021/03/02 08:49:45;;;;;;;36.22;19.88;;;;;;;13.46;44.63;102752.69;5082019;28;20048;-84
2021/03/02 08:52:12;;;;;;;30.40;19.17;;;;;;;14.55;42.74;102744.00;5053406;28;20061;-85
2021/03/02 08:54:48;;;;;;;37.50;19.70;;;;;;;16.83;37.82;102743.16;5073003;28;20045;-85
2021/03/02 08:57:15;;;;;;;36.92;20.15;;;;;;;15.52;40.63;102739.75;5064931;28;20063;-85
2021/03/02 08:59:42;;;;;;;32.63;19.92;;;;;;;15.73;40.11;102743.25;5057511;28;20055;-84
2021/03/02 09:02:11;;;;;;;34.65;20.17;;;;;;;15.11;41.06;102743.34;5039717;28;20049;-81
2021/03/02 09:04:59;;;;;;;;;;;;;;;15.38;40.44;102756.31;5073078;28;20414;-82
2021/03/02 09:07:29;;;;;;;36.03;20.45;;;;;;;15.44;40.83;102753.38;5044835;28;19916;-83
2021/03/02 09:09:56;;;;;;;35.00;19.90;;;;;;;15.40;40.95;102759.75;5052377;28;20048;-82
2021/03/02 09:12:23;;;;;;;32.55;19.50;;;;;;;14.51;42.04;102762.75;5038336;28;20095;-82
2021/03/02 09:14:50;;;;;;;38.95;21.77;;;;;;;15.35;41.06;102757.28;5019190;28;20025;-83
2021/03/02 09:17:19;;;;;;;39.90;21.08;;;;;;;14.84;42.06;102756.03;5059322;28;20524;-82
2021/03/02 09:19:47;;;;;;;40.72;20.98;;;;;;;15.84;39.80;102746.25;5056938;28;20033;-83
2021/03/02 09:22:15;;;;;;;46.60;20.67;;;;;;;16.34;38.24;102753.56;5044610;28;20045;-83
2021/03/02 09:24:48;;;;;;;43.22;21.88;;;;;;;15.36;39.95;102755.53;5059176;28;20060;-82
2021/03/02 09:27:17;;;;;;;43.63;22.20;;;;;;;14.33;42.92;102756.38;5048598;28;20117;-82
2021/03/02 09:29:51;;;;;;;48.33;23.92;;;;;;;14.38;42.82;102755.28;5063330;28;20052;-83
2021/03/02 09:32:29;;;;;;;39.53;22.75;;;;;;;16.85;37.90;102754.59;5060478;28;20067;-82
2021/03/02 09:35:03;;;;;;;36.55;22.00;;;;;;;15.90;39.33;102748.63;5042582;28;20048;-81
2021/03/02 09:37:31;;;;;;;39.08;22.67;;;;;;;16.04;39.42;102755.94;5040742;28;20082;-80
2021/03/02 09:40:08;;;;;;;35.22;21.38;;;;;;;14.18;43.31;102757.84;5024274;28;20048;-81
2021/03/02 09:42:37;;;;;;;37.15;22.40;;;;;;;13.32;44.55;102758.50;5068217;28;20037;-80
2021/03/02 09:45:16;;;;;;;38.33;22.30;;;;;;;12.80;46.12;102762.09;5064595;28;20537;-81
2021/03/02 09:47:47;;;;;;;39.13;21.70;;;;;;;11.87;49.07;102764.16;5046461;28;20052;-82
2021/03/02 09:50:18;;;;;;;36.95;22.65;;;;;;;10.67;53.29;102754.31;5065086;28;20034;-83
2021/03/02 09:52:46;;;;;;;46.67;25.00;;;;;;;9.86;55.85;102752.69;5072517;28;20124;-82
2021/03/02 09:55:32;;;;;;;40.40;23.02;;;;;;;8.73;60.24;102760.13;5050387;28;20083;-82
2021/03/02 10:01:03;;;;;;;51.53;23.83;;;;;;;8.16;62.34;102754.03;5077695;28;20057;-83
2021/03/02 10:03:34;;;;;;;49.67;23.05;;;;;;;8.02;63.27;102756.88;5063259;28;20053;-83
2021/03/02 10:06:03;;;;;;;39.88;22.13;;;;;;;7.75;64.43;102755.50;5045669;28;20057;-83
2021/03/02 10:08:38;;;;;;;48.92;23.98;;;;;;;7.69;65.21;102755.53;5042279;28;20055;-82
2021/03/02 10:11:20;;;;;;;41.10;23.27;;;;;;;7.62;65.02;102754.78;5048095;28;20213;-78
2021/03/02 10:13:53;;;;;;;57.70;24.27;;;;;;;7.44;66.85;102755.00;5069025;28;20129;-81
2021/03/02 10:16:30;;;;;;;43.20;20.30;;;;;;;7.34;66.64;102762.97;5067211;28;20523;-82
2021/03/02 10:19:21;;;;;;;39.28;20.65;;;;;;;7.14;66.60;102761.44;5067015;28;20058;-82
2021/03/02 10:21:49;;;;;;;44.40;21.48;;;;;;;7.49;67.18;102755.81;5071083;28;20040;-81
2021/03/02 10:24:18;;;;;;;37.75;22.52;;;;;;;7.70;66.11;102752.94;5069426;28;20052;-82
2021/03/02 10:26:46;;;;;;;55.05;20.02;;;;;;;7.83;65.79;102754.50;5067697;28;20562;-79
2021/03/02 10:29:14;;;;;;;43.45;23.30;;;;;;;7.95;65.55;102757.81;5063078;28;20052;-80
2021/03/02 10:31:42;;;;;;;39.83;21.25;;;;;;;7.87;65.30;102752.69;5034686;28;20037;-80
2021/03/02 10:34:15;;;;;;;48.58;22.67;;;;;;;8.05;65.16;102764.66;5056758;28;20101;-82
2021/03/02 10:36:45;;;;;;;37.03;21.95;;;;;;;7.93;64.72;102757.88;5076090;28;20033;-81
2021/03/02 10:39:18;;;;;;;41.72;19.63;;;;;;;7.91;65.42;102756.13;5025217;28;20092;-82
2021/03/02 10:41:45;;;;;;;40.10;21.13;;;;;;;7.57;65.48;102767.06;5043519;28;20039;-80
2021/03/02 10:44:39;;;;;;;41.38;19.52;;;;;;;7.53;66.05;102758.38;5059759;28;20031;-82
2021/03/02 10:47:06;;;;;;;40.60;20.00;;;;;;;7.48;65.84;102762.81;5077498;28;20045;-79
2021/03/02 10:49:34;;;;;;;39.70;20.30;;;;;;;7.52;66.08;102761.88;5068077;28;20060;-82
2021/03/02 10:52:01;;;;;;;40.03;20.23;;;;;;;7.78;65.55;102758.03;5035713;28;20059;-81
2021/03/02 10:54:29;;;;;;;34.17;19.65;;;;;;;7.82;65.84;102757.13;5052312;28;20041;-82
2021/03/02 10:56:57;;;;;;;40.17;22.05;;;;;;;7.74;65.55;102758.97;5061263;28;20097;-83
2021/03/02 10:59:24;;;;;;;38.03;20.23;;;;;;;7.94;65.35;102756.97;5041686;28;20124;-83
2021/03/02 11:01:51;;;;;;;39.40;20.52;;;;;;;8.04;64.95;102755.94;5035832;28;20052;-82
2021/03/02 11:04:18;;;;;;;37.60;21.05;;;;;;;8.19;63.81;102754.84;5048915;28;20036;-81
2021/03/02 11:06:45;;;;;;;41.85;21.65;;;;;;;8.26;64.71;102755.63;5045785;28;20080;-85
2021/03/02 11:09:15;;;;;;;42.67;21.85;;;;;;;8.45;63.54;102753.63;5035413;28;20045;-82
2021/03/02 11:11:42;;;;;;;46.67;24.02;;;;;;;8.53;63.92;102751.75;5026989;28;21195;-84
2021/03/02 11:14:09;;;;;;;53.28;25.27;;;;;;;8.55;64.08;102752.56;5064398;28;20060;-83
2021/03/02 11:16:36;;;;;;;46.75;24.05;;;;;;;8.64;63.55;102741.91;5043368;28;20051;-84
2021/03/02 11:19:09;;;;;;;46.22;24.55;;;;;;;8.77;63.13;102739.94;5020658;28;20116;-83
2021/03/02 11:21:37;;;;;;;42.35;23.52;;;;;;;8.75;62.57;102737.34;5053408;28;20044;-82
2021/03/02 11:24:05;;;;;;;46.25;23.90;;;;;;;8.80;62.66;102740.75;5038993;28;20060;-82
2021/03/02 11:26:32;;;;;;;48.97;26.13;;;;;;;8.78;62.59;102737.31;5034236;28;20104;-81
2021/03/02 11:28:59;;;;;;;41.10;22.80;;;;;;;8.80;62.41;102739.91;5051169;28;20064;-82
2021/03/02 11:31:27;;;;;;;49.95;26.75;;;;;;;8.89;62.83;102729.22;5041948;28;20119;-81
2021/03/02 11:34:00;;;;;;;47.30;24.15;;;;;;;8.92;62.70;102729.19;5055515;28;20046;-83
2021/03/02 11:36:27;;;;;;;43.72;23.65;;;;;;;8.96;61.69;102725.59;5042084;28;20055;-79